Time;durP1;ratioP1;P1;durP2;ratioP2;P2;SDS_P1;SDS_P2;PMS_P1;PMS_P2;Temp;Humidity;BMP_temperature;BMP_pressure;BME280_temperature;BME280_humidity;BME280_pressure;Samples;Min_cycle;Max_cycle;Signal;HPM_P1;HPM_P2
2023/06/24 00:01:44;;;;;;;4.40;4.00;;;;;;;18.00;79.29;98943.31;5073427;28;20212;-78
2023/06/24 00:04:10;;;;;;;4.00;3.70;;;;;;;17.92;79.30;98951.81;5073286;28;20588;-78
2023/06/24 00:06:36;;;;;;;5.47;3.80;;;;;;;17.96;80.19;98942.19;5073178;28;20236;-78
2023/06/24 00:09:04;;;;;;;4.40;4.00;;;;;;;17.95;80.07;98953.97;5073324;28;20209;-78
2023/06/24 00:11:30;;;;;;;4.70;4.13;;;;;;;17.92;80.81;98952.59;5074192;28;20602;-78
2023/06/24 00:13:57;;;;;;;4.57;4.10;;;;;;;17.79;81.77;98952.13;5076876;28;20211;-78
2023/06/24 00:16:27;;;;;;;5.30;4.43;;;;;;;17.77;82.31;98960.41;5076928;28;20229;-78
2023/06/24 00:18:58;;;;;;;4.77;4.30;;;;;;;17.81;82.68;98950.81;5076610;28;20216;-78
2023/06/24 00:21:29;;;;;;;4.83;4.30;;;;;;;17.76;81.95;98945.34;5076340;28;20185;-78
2023/06/24 00:24:01;;;;;;;4.43;4.03;;;;;;;17.76;82.31;98947.22;5076383;28;20297;-78
2023/06/24 00:26:28;;;;;;;4.70;4.30;;;;;;;17.71;82.57;98950.63;5076314;28;20282;-78
2023/06/24 00:28:54;;;;;;;4.73;4.20;;;;;;;17.74;82.59;98952.81;5076677;28;20200;-78
2023/06/24 00:31:21;;;;;;;4.87;4.47;;;;;;;17.74;84.31;98952.81;5076935;28;20286;-78
2023/06/24 00:33:49;;;;;;;4.73;4.33;;;;;;;17.52;85.44;98956.47;5076453;28;20207;-78
2023/06/24 00:36:15;;;;;;;4.80;4.40;;;;;;;17.52;85.56;98945.72;5076444;28;20236;-78
2023/06/24 00:38:42;;;;;;;5.17;4.77;;;;;;;17.49;86.79;98952.38;5076116;28;20205;-78
2023/06/24 00:41:08;;;;;;;5.17;4.57;;;;;;;17.55;86.56;98951.41;5076182;28;20208;-78
2023/06/24 00:43:35;;;;;;;5.00;4.57;;;;;;;17.60;86.22;98964.16;5076204;28;20201;-78
2023/06/24 00:46:02;;;;;;;5.20;4.70;;;;;;;17.50;86.13;98948.63;5076309;28;20224;-78
2023/06/24 00:48:28;;;;;;;6.60;5.00;;;;;;;17.59;87.32;98952.56;5076058;28;20211;-78
2023/06/24 00:50:54;;;;;;;5.60;5.00;;;;;;;17.57;86.61;98953.88;5075646;28;20593;-78
2023/06/24 00:53:24;;;;;;;7.00;4.83;;;;;;;17.57;88.21;98949.31;5075770;28;20547;-78
2023/06/24 00:55:52;;;;;;;5.20;4.67;;;;;;;17.57;88.85;98954.69;5075677;28;20224;-78
2023/06/24 00:58:20;;;;;;;5.93;5.33;;;;;;;17.59;87.57;98955.25;5075647;28;20235;-78
2023/06/24 01:00:56;;;;;;;5.73;5.10;;;;;;;17.58;88.75;98961.69;5075824;28;20262;-78
2023/06/24 01:03:23;;;;;;;6.37;4.90;;;;;;;17.47;90.71;98951.81;5076136;28;20185;-78
2023/06/24 01:05:50;;;;;;;6.43;5.77;;;;;;;17.43;90.58;98957.91;5076137;28;20236;-78
2023/06/24 01:08:19;;;;;;;5.73;5.13;;;;;;;17.43;90.21;98958.75;5076381;28;20208;-78
2023/06/24 01:10:46;;;;;;;7.57;5.23;;;;;;;17.32;91.72;98954.19;5075768;28;20204;-78
2023/06/24 01:13:12;;;;;;;6.00;5.40;;;;;;;17.32;92.43;98950.69;5075894;28;20224;-78
2023/06/24 01:15:39;;;;;;;5.70;5.10;;;;;;;17.31;92.14;98954.41;5075722;28;20230;-78
2023/06/24 01:18:12;;;;;;;5.93;4.97;;;;;;;17.33;91.51;98947.75;5074420;28;20216;-78
2023/06/24 01:20:46;;;;;;;5.60;5.10;;;;;;;17.36;91.25;98944.59;5075651;28;20185;-78
2023/06/24 01:23:34;;;;;;;5.37;4.87;;;;;;;17.28;91.64;98950.34;5074643;28;20208;-78
2023/06/24 01:26:21;;;;;;;7.33;5.20;;;;;;;17.27;92.57;98942.50;5074123;28;20228;-78
2023/06/24 01:29:15;;;;;;;5.43;4.77;;;;;;;17.24;92.82;98945.69;5075766;28;20242;-78
2023/06/24 01:31:57;;;;;;;5.30;4.80;;;;;;;17.22;92.85;98945.94;5075456;28;20243;-78
2023/06/24 01:34:35;;;;;;;5.37;4.97;;;;;;;17.17;93.39;98942.31;5074237;28;20628;-78
2023/06/24 01:37:20;;;;;;;5.33;4.93;;;;;;;17.14;92.98;98945.50;5075181;28;20220;-78
2023/06/24 01:40:21;;;;;;;5.40;4.90;;;;;;;17.09;94.36;98938.16;5076252;28;20189;-78
2023/06/24 01:42:49;;;;;;;5.77;4.67;;;;;;;17.01;95.39;98938.50;5074537;28;20204;-78
2023/06/24 01:45:21;;;;;;;6.10;4.97;;;;;;;17.04;94.27;98937.22;5075002;28;20672;-78
2023/06/24 01:47:53;;;;;;;5.80;4.70;;;;;;;16.97;95.72;98933.88;5075009;28;20215;-78
2023/06/24 01:50:23;;;;;;;5.37;4.87;;;;;;;16.88;96.48;98932.63;5074808;28;20189;-78
2023/06/24 01:52:52;;;;;;;6.43;5.37;;;;;;;16.84;97.10;98924.22;5074626;28;20676;-79
2023/06/24 01:55:21;;;;;;;5.67;5.10;;;;;;;16.75;97.66;98935.56;5074746;28;20205;-78
2023/06/24 01:57:51;;;;;;;5.60;5.10;;;;;;;16.75;97.93;98927.50;5073353;28;20215;-78
2023/06/24 02:00:18;;;;;;;6.23;5.17;;;;;;;16.75;97.97;98928.34;5074969;28;20204;-78
2023/06/24 02:02:47;;;;;;;5.87;5.37;;;;;;;16.63;98.76;98924.84;5074629;28;20196;-78
2023/06/24 02:05:16;;;;;;;5.50;5.00;;;;;;;16.48;100.00;98919.16;5074828;28;20571;-78
2023/06/24 02:07:43;;;;;;;5.77;5.20;;;;;;;16.47;100.00;98924.75;5074626;28;20231;-78
2023/06/24 02:10:11;;;;;;;5.37;4.87;;;;;;;16.40;100.00;98921.38;5074903;28;20208;-78
2023/06/24 02:12:39;;;;;;;5.50;5.00;;;;;;;16.38;100.00;98928.81;5074693;28;20236;-78
2023/06/24 02:15:08;;;;;;;5.40;4.90;;;;;;;16.40;100.00;98935.63;5073010;28;20670;-78
2023/06/24 02:17:35;;;;;;;4.90;4.50;;;;;;;16.42;100.00;98933.50;5074636;28;20224;-78
2023/06/24 02:20:04;;;;;;;6.40;5.10;;;;;;;16.46;100.00;98929.28;5074385;28;20211;-78
2023/06/24 02:22:31;;;;;;;5.00;4.60;;;;;;;16.48;100.00;98924.53;5074481;28;20204;-78
2023/06/24 02:24:58;;;;;;;7.03;5.23;;;;;;;16.53;100.00;98919.25;5073974;28;20212;-78
2023/06/24 02:27:25;;;;;;;8.77;4.80;;;;;;;16.50;100.00;98922.41;5074212;28;20224;-78
2023/06/24 02:29:53;;;;;;;5.27;4.77;;;;;;;16.45;100.00;98911.56;5074423;28;20216;-78
2023/06/24 02:32:19;;;;;;;6.00;5.23;;;;;;;16.49;100.00;98917.28;5074204;28;20684;-78
2023/06/24 02:34:45;;;;;;;6.53;4.90;;;;;;;16.41;100.00;98918.44;5073205;28;20212;-78
2023/06/24 02:37:12;;;;;;;5.20;4.70;;;;;;;16.43;100.00;98918.22;5074022;28;20726;-78
2023/06/24 02:39:43;;;;;;;5.20;4.70;;;;;;;16.39;100.00;98912.47;5074245;28;20201;-78
2023/06/24 02:42:11;;;;;;;4.93;4.53;;;;;;;16.36;100.00;98921.00;5074043;28;20188;-78
2023/06/24 02:44:39;;;;;;;4.90;4.50;;;;;;;16.30;100.00;98913.06;5074109;28;20258;-78
2023/06/24 02:47:10;;;;;;;6.20;5.27;;;;;;;16.24;100.00;98911.31;5074081;28;20579;-78
2023/06/24 02:49:38;;;;;;;5.50;5.00;;;;;;;16.29;100.00;98906.88;5073850;28;20209;-78
2023/06/24 02:52:04;;;;;;;5.13;4.70;;;;;;;16.23;100.00;98917.72;5073756;28;20695;-78
2023/06/24 02:54:31;;;;;;;5.23;4.77;;;;;;;16.13;100.00;98918.31;5074068;28;20300;-78
2023/06/24 02:56:58;;;;;;;6.57;4.97;;;;;;;16.16;100.00;98927.78;5073854;28;20745;-78
2023/06/24 02:59:26;;;;;;;5.90;5.00;;;;;;;16.11;100.00;98915.03;5073680;28;20667;-78
2023/06/24 03:01:53;;;;;;;6.20;5.60;;;;;;;16.18;100.00;98926.47;5073431;28;20240;-78
2023/06/24 03:04:21;;;;;;;5.50;5.00;;;;;;;16.23;100.00;98920.41;5073779;28;20303;-78
2023/06/24 03:06:49;;;;;;;6.73;4.90;;;;;;;16.24;100.00;98922.06;5073556;28;20265;-78
2023/06/24 03:09:16;;;;;;;5.87;5.20;;;;;;;16.16;100.00;98923.22;5074023;28;20211;-78
2023/06/24 03:11:43;;;;;;;5.27;4.87;;;;;;;16.03;100.00;98923.47;5073979;28;20204;-78
2023/06/24 03:14:11;;;;;;;6.00;5.13;;;;;;;16.05;100.00;98924.03;5073662;28;20245;-78
2023/06/24 03:16:38;;;;;;;5.73;4.60;;;;;;;16.05;100.00;98926.72;5073199;28;20711;-78
2023/06/24 03:19:05;;;;;;;5.50;5.00;;;;;;;15.98;100.00;98923.34;5073452;28;20233;-78
2023/06/24 03:21:32;;;;;;;6.53;5.20;;;;;;;15.96;100.00;98922.75;5073685;28;20209;-78
2023/06/24 03:23:59;;;;;;;6.17;4.73;;;;;;;15.89;100.00;98931.94;5073472;28;20217;-78
2023/06/24 03:26:32;;;;;;;5.57;5.07;;;;;;;15.90;100.00;98936.25;5074020;28;20582;-78
2023/06/24 03:28:59;;;;;;;5.90;5.30;;;;;;;15.89;100.00;98938.13;5073553;28;20185;-78
2023/06/24 03:31:25;;;;;;;5.77;5.17;;;;;;;15.95;100.00;98942.56;5073006;28;20215;-78
2023/06/24 03:33:52;;;;;;;5.07;4.57;;;;;;;15.92;100.00;98952.94;5073580;28;20232;-78
2023/06/24 03:36:18;;;;;;;5.63;5.13;;;;;;;15.93;100.00;98954.56;5073511;28;20225;-78
2023/06/24 03:38:44;;;;;;;5.37;4.97;;;;;;;15.93;100.00;98952.69;5073392;28;20291;-78
2023/06/24 03:41:11;;;;;;;6.77;5.57;;;;;;;15.79;100.00;98953.97;5073026;28;20208;-78
2023/06/24 03:43:37;;;;;;;6.13;5.53;;;;;;;15.88;100.00;98957.94;5073017;28;20212;-78
2023/06/24 03:46:03;;;;;;;5.60;5.00;;;;;;;15.90;100.00;98961.22;5074166;28;20316;-78
2023/06/24 03:48:30;;;;;;;6.07;5.47;;;;;;;15.91;100.00;98978.94;5077040;28;20201;-78
2023/06/24 03:50:56;;;;;;;5.60;5.10;;;;;;;15.95;100.00;98968.56;5076996;28;20216;-78
2023/06/24 03:53:22;;;;;;;5.90;5.40;;;;;;;16.02;100.00;98969.28;5077091;28;20221;-78
2023/06/24 03:55:49;;;;;;;7.37;5.50;;;;;;;16.01;100.00;98967.66;5076739;28;20227;-78
2023/06/24 03:58:16;;;;;;;6.63;6.03;;;;;;;16.06;100.00;98968.56;5076947;28;20205;-78
2023/06/24 04:00:44;;;;;;;6.43;5.63;;;;;;;16.17;100.00;98975.00;5076776;28;20228;-78
2023/06/24 04:03:10;;;;;;;6.37;5.43;;;;;;;16.19;100.00;98973.72;5076919;28;20281;-78
2023/06/24 04:05:37;;;;;;;5.50;5.00;;;;;;;16.26;100.00;98977.13;5076126;28;20192;-78
2023/06/24 04:08:05;;;;;;;6.53;5.90;;;;;;;16.29;100.00;98978.53;5069505;28;20204;-78
2023/06/24 04:10:32;;;;;;;6.53;5.70;;;;;;;16.43;100.00;98978.09;5076593;28;20212;-78
2023/06/24 04:12:58;;;;;;;6.93;6.17;;;;;;;16.46;100.00;98982.19;5076288;28;20224;-78
2023/06/24 04:15:24;;;;;;;6.63;5.90;;;;;;;16.48;100.00;98993.50;5076372;28;20291;-78
2023/06/24 04:17:51;;;;;;;6.30;5.63;;;;;;;16.51;100.00;98984.97;5076414;28;20201;-78
2023/06/24 04:20:17;;;;;;;6.37;5.70;;;;;;;16.53;100.00;98989.06;5076796;28;20215;-78
2023/06/24 04:22:43;;;;;;;5.77;5.27;;;;;;;16.58;100.00;98991.84;5069410;28;20202;-78
2023/06/24 04:25:10;;;;;;;6.77;5.17;;;;;;;16.57;100.00;98987.53;5068264;28;20204;-78
2023/06/24 04:27:37;;;;;;;6.37;5.77;;;;;;;16.62;100.00;98992.19;5065158;28;20233;-78
2023/06/24 04:30:04;;;;;;;6.30;5.77;;;;;;;16.66;100.00;98990.69;5073589;28;20212;-78
2023/06/24 04:32:30;;;;;;;6.17;5.57;;;;;;;16.67;100.00;98997.69;5067395;28;20229;-78
2023/06/24 04:34:59;;;;;;;6.40;5.80;;;;;;;16.72;100.00;98990.56;5066131;28;20197;-78
2023/06/24 04:37:25;;;;;;;6.10;5.60;;;;;;;16.78;100.00;98992.28;5055747;28;20770;-78
2023/06/24 04:39:52;;;;;;;7.10;6.40;;;;;;;16.77;100.00;99001.41;5068132;28;20219;-80
2023/06/24 04:42:18;;;;;;;6.87;5.90;;;;;;;16.87;100.00;99007.00;5063387;28;20212;-79
2023/06/24 04:44:45;;;;;;;6.83;6.23;;;;;;;16.88;100.00;99007.81;5064272;28;20201;-79
2023/06/24 04:47:13;;;;;;;6.93;6.33;;;;;;;16.88;100.00;99010.50;5070835;28;20683;-78
2023/06/24 04:49:40;;;;;;;7.93;6.07;;;;;;;16.95;100.00;99003.94;5078510;28;20201;-79
2023/06/24 04:52:07;;;;;;;6.10;5.60;;;;;;;16.99;100.00;99001.59;5058220;28;20206;-79
2023/06/24 04:54:33;;;;;;;6.90;6.20;;;;;;;17.05;100.00;99006.84;5060161;28;20228;-79
2023/06/24 04:57:00;;;;;;;7.00;6.13;;;;;;;16.99;100.00;98997.06;5076751;28;20544;-79
2023/06/24 04:59:26;;;;;;;6.70;6.10;;;;;;;16.98;100.00;99003.50;5076764;28;20207;-79
2023/06/24 05:01:52;;;;;;;6.50;5.90;;;;;;;17.07;100.00;98996.69;5077730;28;20211;-79
2023/06/24 05:04:19;;;;;;;7.10;6.17;;;;;;;17.18;100.00;99001.22;5078171;28;20203;-79
2023/06/24 05:06:45;;;;;;;6.93;6.23;;;;;;;17.38;99.97;98998.91;5077118;28;20596;-79
2023/06/24 05:09:13;;;;;;;7.00;5.83;;;;;;;17.64;97.89;99008.34;5077163;28;20209;-79
2023/06/24 05:11:41;;;;;;;8.00;5.63;;;;;;;17.77;96.86;99008.00;5077296;28;20296;-79
2023/06/24 05:14:07;;;;;;;6.93;5.57;;;;;;;17.85;95.65;99008.44;5077678;28;20270;-79
2023/06/24 05:16:34;;;;;;;8.63;6.13;;;;;;;18.25;93.16;99006.44;5077384;28;20726;-79
2023/06/24 05:19:00;;;;;;;7.13;5.50;;;;;;;18.61;89.93;99005.97;5077357;28;20207;-79
2023/06/24 05:21:26;;;;;;;5.97;5.37;;;;;;;18.86;86.37;99013.59;5077458;28;20668;-79
2023/06/24 05:23:53;;;;;;;6.70;5.50;;;;;;;19.05;84.53;99015.72;5077003;28;20726;-80
2023/06/24 05:26:19;;;;;;;7.40;5.60;;;;;;;19.63;82.00;99017.00;5077418;28;20589;-79
2023/06/24 05:28:45;;;;;;;6.00;5.30;;;;;;;19.44;82.36;99014.63;5077148;28;20200;-79
2023/06/24 05:31:12;;;;;;;6.00;5.50;;;;;;;19.66;81.37;99003.81;5077887;28;20211;-79
2023/06/24 05:33:38;;;;;;;6.20;5.60;;;;;;;19.49;81.75;99012.00;5077312;28;20220;-79
2023/06/24 05:36:04;;;;;;;6.03;5.37;;;;;;;19.19;83.94;99008.91;5077177;28;20235;-79
2023/06/24 05:38:31;;;;;;;5.80;5.20;;;;;;;19.17;83.08;99015.59;5076989;28;20208;-79
2023/06/24 05:40:57;;;;;;;5.77;4.83;;;;;;;19.12;86.72;99019.06;5077457;28;20211;-79
2023/06/24 05:43:23;;;;;;;6.10;5.30;;;;;;;19.04;86.99;99013.28;5076931;28;20196;-79
2023/06/24 05:45:50;;;;;;;6.07;5.43;;;;;;;19.06;88.62;99012.00;5076326;28;20227;-79
2023/06/24 05:48:16;;;;;;;5.97;5.40;;;;;;;19.21;85.67;99009.47;5077082;28;20205;-79
2023/06/24 05:50:43;;;;;;;5.53;4.90;;;;;;;19.12;85.55;99020.94;5076872;28;20222;-79
2023/06/24 05:53:09;;;;;;;5.53;4.83;;;;;;;19.16;85.04;99019.38;5076669;28;20220;-79
2023/06/24 05:55:35;;;;;;;5.53;5.03;;;;;;;19.26;82.14;99014.97;5076876;28;20208;-79
2023/06/24 05:58:02;;;;;;;5.27;4.73;;;;;;;19.29;80.32;99022.56;5077078;28;20211;-79
2023/06/24 06:00:28;;;;;;;5.03;4.53;;;;;;;19.52;82.78;99016.88;5076551;28;20204;-79
2023/06/24 06:02:54;;;;;;;6.23;4.97;;;;;;;19.46;81.78;99017.88;5077100;28;20204;-79
2023/06/24 06:05:21;;;;;;;6.50;4.57;;;;;;;19.58;77.11;99023.97;5076729;28;20208;-79
2023/06/24 06:07:48;;;;;;;4.67;4.10;;;;;;;19.49;78.60;99014.69;5076519;28;20682;-79
2023/06/24 06:10:17;;;;;;;4.50;4.20;;;;;;;19.68;78.41;99017.88;5076728;28;20211;-79
2023/06/24 06:12:43;;;;;;;4.53;4.10;;;;;;;19.85;74.48;99020.47;5076643;28;20291;-79
2023/06/24 06:15:10;;;;;;;4.57;3.87;;;;;;;19.89;73.46;99019.69;5076461;28;20213;-79
2023/06/24 06:17:37;;;;;;;4.70;4.30;;;;;;;20.02;74.20;99015.78;5076437;28;20228;-79
2023/06/24 06:20:03;;;;;;;4.93;4.33;;;;;;;20.17;73.16;99015.94;5077363;28;20576;-79
2023/06/24 06:22:31;;;;;;;4.60;4.20;;;;;;;20.15;73.00;99018.06;5076695;28;20223;-79
2023/06/24 06:24:58;;;;;;;4.40;4.00;;;;;;;20.15;71.87;99012.66;5076406;28;20650;-79
2023/06/24 06:27:24;;;;;;;5.63;4.57;;;;;;;20.40;73.63;99011.00;5076696;28;20229;-79
2023/06/24 06:29:51;;;;;;;5.97;4.80;;;;;;;20.45;76.07;99004.81;5076725;28;20211;-79
2023/06/24 06:32:17;;;;;;;4.83;4.43;;;;;;;20.56;74.98;99003.81;5076619;28;20200;-79
2023/06/24 06:34:43;;;;;;;6.10;5.03;;;;;;;20.55;74.17;99008.41;5076103;28;20236;-79
2023/06/24 06:37:10;;;;;;;5.57;4.90;;;;;;;20.49;75.39;99011.34;5076637;28;20231;-79
2023/06/24 06:39:36;;;;;;;4.10;3.70;;;;;;;20.52;69.99;99008.91;5076443;28;20201;-79
2023/06/24 06:42:02;;;;;;;3.73;3.30;;;;;;;20.59;68.26;99008.69;5076211;28;20201;-79
2023/06/24 06:44:29;;;;;;;4.17;3.77;;;;;;;20.74;66.65;99006.09;5076081;28;20663;-79
2023/06/24 06:46:55;;;;;;;5.00;4.10;;;;;;;20.88;66.34;99001.84;5076286;28;20591;-79
2023/06/24 06:49:22;;;;;;;4.30;3.90;;;;;;;21.00;68.51;99005.19;5075861;28;20659;-79
2023/06/24 06:51:48;;;;;;;4.07;3.77;;;;;;;21.04;66.86;98995.47;5076314;28;20205;-79
2023/06/24 06:54:15;;;;;;;4.80;4.20;;;;;;;21.13;64.47;99000.13;5075716;28;20391;-79
2023/06/24 06:56:41;;;;;;;3.73;3.43;;;;;;;21.18;63.23;98999.34;5075767;28;20231;-79
2023/06/24 06:59:07;;;;;;;4.23;3.83;;;;;;;21.23;62.66;98997.47;5075718;28;20204;-79
2023/06/24 07:01:34;;;;;;;3.70;3.40;;;;;;;21.29;62.17;98998.31;5075596;28;20208;-79
2023/06/24 07:04:00;;;;;;;4.13;3.63;;;;;;;21.36;61.60;98998.88;5075741;28;20208;-79
2023/06/24 07:06:27;;;;;;;3.40;3.07;;;;;;;21.49;60.22;98993.78;5075961;28;20232;-79
2023/06/24 07:08:53;;;;;;;4.03;3.67;;;;;;;21.64;60.54;98990.28;5075775;28;20265;-79
2023/06/24 07:11:20;;;;;;;3.92;3.40;;;;;;;21.78;59.91;98994.13;5076274;28;20201;-79
2023/06/24 07:13:46;;;;;;;4.03;3.63;;;;;;;21.57;58.04;98995.16;5075474;28;20220;-79
2023/06/24 07:16:13;;;;;;;4.07;3.67;;;;;;;21.76;59.11;98993.59;5075124;28;20591;-79
2023/06/24 07:18:39;;;;;;;4.97;3.80;;;;;;;21.74;57.79;99001.16;5075213;28;20219;-79
2023/06/24 07:21:05;;;;;;;4.15;3.75;;;;;;;21.85;58.62;99000.94;5075787;28;20209;-79
2023/06/24 07:23:32;;;;;;;3.78;3.40;;;;;;;21.83;57.45;98994.97;5078925;28;20208;-79
2023/06/24 07:25:58;;;;;;;4.78;3.38;;;;;;;21.98;57.06;98997.69;5079004;28;20228;-79
2023/06/24 07:28:24;;;;;;;3.60;3.30;;;;;;;21.94;55.82;98995.78;5079330;28;20210;-78
2023/06/24 07:30:51;;;;;;;3.55;3.25;;;;;;;22.01;56.67;98999.03;5079129;28;20210;-79
2023/06/24 07:33:17;;;;;;;3.50;3.20;;;;;;;22.04;56.16;98999.34;5079303;28;20303;-79
2023/06/24 07:35:44;;;;;;;4.05;3.47;;;;;;;22.08;56.21;98997.72;5079345;28;20224;-80
2023/06/24 07:38:10;;;;;;;2.97;2.78;;;;;;;22.43;55.37;98994.97;5078830;28;20212;-79
2023/06/24 07:40:36;;;;;;;3.33;3.05;;;;;;;22.60;55.77;98994.72;5078805;28;20231;-79
2023/06/24 07:43:03;;;;;;;4.18;3.42;;;;;;;22.54;53.73;98993.09;5078834;28;20697;-79
2023/06/24 07:45:29;;;;;;;3.53;3.22;;;;;;;22.37;53.71;98997.97;5078778;28;20230;-79
2023/06/24 07:47:55;;;;;;;3.70;3.40;;;;;;;22.49;53.35;98993.94;5078553;28;20232;-79
2023/06/24 07:50:22;;;;;;;4.07;3.78;;;;;;;22.53;54.71;98999.63;5079150;28;20204;-79
2023/06/24 07:52:48;;;;;;;3.53;3.22;;;;;;;22.39;53.92;99003.94;5079290;28;20209;-79
2023/06/24 07:55:15;;;;;;;3.90;3.60;;;;;;;22.63;53.54;98994.19;5079168;28;20315;-79
2023/06/24 07:57:45;;;;;;;3.85;3.25;;;;;;;22.61;55.09;98991.72;5078783;28;20726;-79
2023/06/24 08:00:12;;;;;;;4.80;3.42;;;;;;;22.80;53.19;98995.50;5079043;28;20189;-79
2023/06/24 08:02:38;;;;;;;5.20;3.95;;;;;;;22.84;51.40;98991.16;5079044;28;20205;-79
2023/06/24 08:05:05;;;;;;;5.38;3.63;;;;;;;22.93;53.18;98985.97;5078830;28;20663;-79
2023/06/24 08:07:31;;;;;;;3.90;3.58;;;;;;;22.97;53.80;98987.84;5078241;28;20228;-79
2023/06/24 08:09:57;;;;;;;3.95;3.38;;;;;;;23.11;52.53;98990.81;5078852;28;20205;-79
2023/06/24 08:12:24;;;;;;;3.90;3.60;;;;;;;23.16;54.91;98988.88;5079101;28;20215;-78
2023/06/24 08:14:50;;;;;;;3.50;3.20;;;;;;;23.28;53.37;98985.88;5076932;28;20228;-78
2023/06/24 08:17:17;;;;;;;3.50;2.95;;;;;;;23.46;50.94;98975.22;5077009;28;20232;-78
2023/06/24 08:19:43;;;;;;;4.13;3.72;;;;;;;23.16;51.63;98978.00;5076959;28;20205;-79
2023/06/24 08:22:09;;;;;;;3.80;3.50;;;;;;;22.98;52.00;98980.53;5077246;28;20585;-78
2023/06/24 08:24:36;;;;;;;4.10;3.78;;;;;;;23.25;52.22;98978.31;5076321;28;20236;-78
2023/06/24 08:27:03;;;;;;;3.70;3.40;;;;;;;23.13;51.62;98972.34;5076260;28;20723;-78
2023/06/24 08:29:29;;;;;;;3.85;3.53;;;;;;;23.16;51.11;98971.81;5076255;28;20296;-78
2023/06/24 08:31:56;;;;;;;3.35;3.05;;;;;;;23.56;51.59;98972.44;5076197;28;20220;-79
2023/06/24 08:34:22;;;;;;;4.85;2.88;;;;;;;23.48;49.69;98961.34;5076321;28;20221;-78
2023/06/24 08:36:49;;;;;;;3.38;3.10;;;;;;;23.74;50.14;98973.69;5075825;28;20774;-78
2023/06/24 08:39:15;;;;;;;3.25;3.05;;;;;;;24.09;45.76;98970.75;5075767;28;20667;-78
2023/06/24 08:41:41;;;;;;;3.90;2.70;;;;;;;24.10;44.69;98972.38;5076461;28;20208;-78
2023/06/24 08:44:08;;;;;;;4.20;3.20;;;;;;;23.23;44.47;98972.31;5076412;28;20205;-78
2023/06/24 08:46:35;;;;;;;3.00;2.80;;;;;;;23.33;46.40;98967.66;5076072;28;20235;-78
2023/06/24 08:49:25;;;;;;;3.30;3.00;;;;;;;23.55;43.92;98964.56;5075880;28;20212;-78
2023/06/24 08:51:59;;;;;;;3.65;3.20;;;;;;;23.75;47.56;98962.53;5076042;28;20202;-78
2023/06/24 08:54:26;;;;;;;4.72;3.22;;;;;;;23.98;48.17;98963.78;5075965;28;20235;-78
2023/06/24 08:56:54;;;;;;;4.00;3.22;;;;;;;23.85;47.74;98964.38;5076745;28;20224;-78
2023/06/24 08:59:20;;;;;;;4.53;3.75;;;;;;;23.98;46.11;98964.59;5075959;28;20200;-78
2023/06/24 09:01:51;;;;;;;3.60;3.28;;;;;;;23.66;46.63;98961.50;5076800;28;20247;-79
2023/06/24 09:04:17;;;;;;;3.53;3.22;;;;;;;24.12;46.60;98962.03;5076292;28;20223;-78
2023/06/24 09:06:44;;;;;;;3.40;3.10;;;;;;;24.29;46.42;98955.06;5076468;28;20227;-78
2023/06/24 09:09:24;;;;;;;5.35;3.22;;;;;;;24.58;45.61;98963.22;5075853;28;20250;-78
2023/06/24 09:11:57;;;;;;;3.40;3.10;;;;;;;24.63;44.50;98955.06;5076742;28;20212;-77
2023/06/24 09:14:25;;;;;;;3.50;3.30;;;;;;;24.39;42.75;98967.78;5075802;28;20209;-79
2023/06/24 09:16:56;;;;;;;3.63;3.25;;;;;;;24.37;42.55;98949.03;5075289;28;20595;-78
2023/06/24 09:19:29;;;;;;;3.40;3.20;;;;;;;24.69;43.36;98953.91;5076066;28;20196;-79
2023/06/24 09:22:05;;;;;;;2.97;2.78;;;;;;;24.70;43.44;98945.44;5076453;28;20204;-79
2023/06/24 09:24:32;;;;;;;3.13;2.88;;;;;;;24.78;44.56;98946.75;5076176;28;20203;-79
2023/06/24 09:26:59;;;;;;;3.75;3.33;;;;;;;24.75;43.23;98939.16;5075502;28;20731;-78
2023/06/24 09:29:32;;;;;;;3.50;3.20;;;;;;;25.11;42.12;98945.81;5075116;28;20579;-78
2023/06/24 09:31:59;;;;;;;3.63;3.33;;;;;;;25.29;42.94;98942.34;5076019;28;20254;-79
2023/06/24 09:34:27;;;;;;;3.38;3.08;;;;;;;25.26;41.38;98935.56;5075280;28;20221;-78
2023/06/24 09:36:55;;;;;;;3.30;3.00;;;;;;;25.31;41.23;98937.41;5075757;28;20232;-79
2023/06/24 09:39:28;;;;;;;3.15;2.95;;;;;;;25.06;42.17;98929.56;5075567;28;20204;-78
2023/06/24 09:41:54;;;;;;;2.95;2.75;;;;;;;25.41;42.20;98932.63;5075195;28;20193;-78
2023/06/24 09:44:21;;;;;;;3.13;2.83;;;;;;;24.42;39.95;98932.66;5074715;28;20208;-79
2023/06/24 09:46:48;;;;;;;3.58;3.00;;;;;;;24.05;41.91;98920.78;5075526;28;20220;-78
2023/06/24 09:49:15;;;;;;;3.03;2.78;;;;;;;24.69;42.59;98915.84;5075233;28;20212;-79
2023/06/24 09:51:48;;;;;;;3.45;3.15;;;;;;;25.23;41.67;98919.00;5075035;28;20671;-78
2023/06/24 09:54:16;;;;;;;2.63;2.42;;;;;;;25.56;38.27;98915.28;5075245;28;20209;-78
2023/06/24 09:56:53;;;;;;;3.20;2.90;;;;;;;25.49;36.24;98933.88;5074798;28;20229;-78
2023/06/24 09:59:21;;;;;;;3.40;2.50;;;;;;;24.54;37.74;98921.41;5075301;28;20211;-78
2023/06/24 10:01:48;;;;;;;3.10;2.60;;;;;;;24.38;38.25;98919.94;5074125;28;20282;-78
2023/06/24 10:04:21;;;;;;;2.97;2.70;;;;;;;25.27;39.08;98917.31;5073026;28;20211;-78
2023/06/24 10:06:48;;;;;;;3.13;2.60;;;;;;;25.63;37.30;98911.06;5072846;28;20230;-78
2023/06/24 10:09:17;;;;;;;3.08;2.72;;;;;;;25.31;37.05;98913.72;5072308;28;20209;-77
2023/06/24 10:11:45;;;;;;;2.97;2.78;;;;;;;24.74;38.72;98907.63;5071875;28;20583;-77
2023/06/24 10:14:11;;;;;;;3.08;2.85;;;;;;;24.62;38.45;98907.22;5072335;28;20227;-77
2023/06/24 10:16:38;;;;;;;3.50;3.20;;;;;;;24.40;39.66;98904.97;5071806;28;20220;-76
2023/06/24 10:19:06;;;;;;;3.30;3.10;;;;;;;24.55;40.40;98907.53;5072316;28;20204;-77
2023/06/24 10:21:59;;;;;;;3.58;3.22;;;;;;;24.57;41.27;98891.75;5073357;28;20200;-78
2023/06/24 10:24:34;;;;;;;3.65;3.00;;;;;;;24.55;40.51;98893.94;5072991;28;20594;-77
2023/06/24 10:27:06;;;;;;;3.10;2.90;;;;;;;24.50;40.05;98895.88;5073520;28;20270;-77
2023/06/24 10:29:37;;;;;;;2.90;2.58;;;;;;;24.28;41.67;98901.81;5073796;28;20193;-77
2023/06/24 10:32:07;;;;;;;3.83;3.20;;;;;;;24.34;42.21;98891.72;5073578;28;20627;-77
2023/06/24 10:34:37;;;;;;;3.15;2.85;;;;;;;24.85;40.09;98881.91;5073794;28;20213;-77
2023/06/24 10:37:09;;;;;;;3.22;2.92;;;;;;;25.21;39.60;98881.16;5073892;28;20221;-77
2023/06/24 10:39:46;;;;;;;3.05;2.85;;;;;;;25.63;37.98;98880.28;5073577;28;20237;-77
2023/06/24 10:42:37;;;;;;;3.08;2.75;;;;;;;25.83;37.67;98882.72;5073263;28;20204;-77
2023/06/24 10:45:09;;;;;;;2.70;2.45;;;;;;;25.98;37.28;98882.47;5073676;28;20204;-77
2023/06/24 10:47:38;;;;;;;3.38;3.03;;;;;;;25.82;36.04;98881.91;5073791;28;20233;-77
2023/06/24 10:50:06;;;;;;;2.90;2.70;;;;;;;26.08;35.07;98876.84;5073230;28;20205;-77
2023/06/24 10:52:32;;;;;;;4.13;2.90;;;;;;;26.13;35.84;98882.22;5073539;28;20200;-77
2023/06/24 10:54:59;;;;;;;3.40;3.10;;;;;;;26.05;35.20;98870.09;5073059;28;20220;-77
2023/06/24 10:57:27;;;;;;;3.00;2.78;;;;;;;26.28;34.99;98868.34;5072386;28;20228;-77
2023/06/24 10:59:56;;;;;;;2.88;2.67;;;;;;;26.45;34.15;98868.53;5073468;28;20208;-76
2023/06/24 11:02:27;;;;;;;2.85;2.60;;;;;;;26.35;33.23;98869.53;5073473;28;20205;-77
2023/06/24 11:04:58;;;;;;;3.08;2.78;;;;;;;25.86;34.50;98852.13;5073128;28;20220;-77
2023/06/24 11:07:30;;;;;;;2.83;2.63;;;;;;;25.73;35.20;98853.72;5072753;28;20227;-77
2023/06/24 11:10:02;;;;;;;2.67;2.47;;;;;;;26.16;33.45;98857.91;5072632;28;20615;-77
2023/06/24 11:12:31;;;;;;;3.70;3.30;;;;;;;26.09;35.46;98843.84;5072941;28;20193;-77
2023/06/24 11:14:59;;;;;;;2.90;2.70;;;;;;;25.62;33.67;98854.16;5072266;28;20227;-77
2023/06/24 11:17:26;;;;;;;3.90;3.60;;;;;;;25.50;34.82;98846.47;5072763;28;20232;-77
2023/06/24 11:19:54;;;;;;;3.10;2.90;;;;;;;25.86;35.50;98844.78;5073797;28;20223;-77
2023/06/24 11:22:22;;;;;;;2.90;2.70;;;;;;;25.19;35.18;98828.13;5073685;28;20568;-78
2023/06/24 11:24:48;;;;;;;3.80;3.35;;;;;;;25.37;36.26;98833.59;5073022;28;20675;-77
2023/06/24 11:27:15;;;;;;;2.83;2.63;;;;;;;25.73;35.48;98834.63;5072402;28;20288;-77
2023/06/24 11:29:41;;;;;;;3.15;2.92;;;;;;;26.00;35.81;98833.94;5073003;28;20215;-77
2023/06/24 11:32:09;;;;;;;4.25;3.20;;;;;;;26.01;37.16;98825.47;5073115;28;20204;-77
2023/06/24 11:34:36;;;;;;;3.30;3.00;;;;;;;25.98;37.19;98825.25;5073022;28;20231;-77
2023/06/24 11:37:17;;;;;;;4.45;2.70;;;;;;;25.49;37.39;98817.63;5073488;28;20221;-77